createdAt,value
2019-05-20T00:05:50.397Z,15.90
2019-05-20T00:15:56.053Z,15.70
2019-05-20T00:26:01.568Z,15.60
2019-05-20T00:36:08.093Z,15.60
2019-05-20T00:46:14.715Z,15.50
2019-05-20T00:56:20.281Z,15.40
2019-05-20T01:06:25.835Z,15.40
2019-05-20T01:16:31.477Z,15.30
2019-05-20T01:26:37.077Z,15.20
2019-05-20T01:36:42.566Z,15.20
2019-05-20T01:46:48.116Z,15.20
2019-05-20T01:56:53.674Z,15.20
2019-05-20T02:06:59.180Z,15.30
2019-05-20T02:17:06.298Z,15.20
2019-05-20T02:27:11.795Z,15.20
2019-05-20T02:37:17.408Z,15.10
2019-05-20T02:57:29.883Z,14.80
2019-05-20T03:07:35.440Z,14.80
2019-05-20T03:17:44.758Z,13.50
2019-05-20T03:27:55.914Z,14.90
2019-05-20T03:38:01.615Z,15.00
2019-05-20T03:48:07.161Z,15.10
2019-05-20T03:58:13.861Z,15.20
2019-05-20T04:08:19.653Z,15.10
2019-05-20T04:18:25.158Z,15.10
2019-05-20T04:28:30.715Z,15.20
2019-05-20T04:38:36.260Z,15.30
2019-05-20T04:48:41.836Z,15.50
2019-05-20T04:58:51.930Z,15.70
2019-05-20T05:08:57.483Z,15.70
2019-05-20T05:19:03.116Z,16.00
2019-05-20T05:29:08.617Z,16.20
2019-05-20T05:39:14.242Z,16.20
2019-05-20T05:49:19.915Z,16.30
2019-05-20T05:59:25.411Z,16.20
2019-05-20T06:09:30.902Z,16.10
2019-05-20T06:19:36.435Z,16.10
2019-05-20T06:29:42.094Z,16.10
2019-05-20T06:39:50.742Z,16.40
2019-05-20T06:49:54.816Z,16.20
2019-05-20T07:00:00.363Z,16.50
2019-05-20T07:10:10.663Z,17.50
2019-05-20T07:20:16.340Z,17.10
2019-05-20T07:30:22.198Z,17.10
2019-05-20T07:40:32.360Z,16.90
2019-05-20T07:50:40.399Z,16.40
2019-05-20T08:00:46.005Z,16.50
2019-05-20T08:10:51.564Z,15.90
2019-05-20T08:20:59.711Z,16.50
2019-05-20T08:31:06.009Z,16.70
2019-05-20T08:41:11.599Z,16.60
2019-05-20T08:51:17.271Z,16.80
2019-05-20T09:01:22.799Z,16.70
2019-05-20T09:11:29.339Z,16.90
2019-05-20T09:21:34.995Z,17.30
2019-05-20T09:31:40.676Z,17.70
2019-05-20T09:41:46.401Z,18.30
2019-05-20T09:51:53.717Z,18.10
2019-05-20T10:02:00.476Z,18.70
2019-05-20T10:12:06.079Z,18.40
2019-05-20T10:22:11.646Z,18.10
2019-05-20T10:32:17.292Z,18.50
2019-05-20T10:42:22.815Z,18.80
2019-05-20T10:52:29.370Z,19.40
2019-05-20T11:02:34.895Z,19.00
2019-05-20T11:12:41.377Z,19.40
2019-05-20T11:22:46.922Z,19.50
2019-05-20T11:32:52.483Z,20.00
2019-05-20T11:42:58.064Z,20.30
2019-05-20T11:53:03.664Z,20.20
2019-05-20T12:03:09.143Z,20.10
2019-05-20T12:13:14.732Z,21.40
2019-05-20T12:23:21.246Z,21.90
2019-05-20T12:33:26.763Z,21.90
2019-05-20T12:43:32.288Z,22.30
2019-05-20T12:53:37.842Z,22.40
2019-05-20T13:03:43.364Z,22.10
2019-05-20T13:13:48.875Z,22.20
2019-05-20T13:23:54.435Z,22.30
2019-05-20T13:33:59.915Z,22.40
2019-05-20T13:44:06.754Z,22.60
2019-05-20T13:54:12.383Z,23.10
2019-05-20T14:04:17.871Z,23.70
2019-05-20T14:14:24.594Z,23.30
2019-05-20T14:24:30.199Z,23.10
2019-05-20T14:34:35.704Z,21.70
2019-05-20T14:44:42.475Z,22.40
2019-05-20T14:54:49.275Z,23.50
2019-05-20T15:04:54.883Z,23.10
2019-05-20T15:15:00.595Z,22.90
2019-05-20T15:25:06.313Z,23.00
2019-05-20T15:35:12.025Z,22.80
2019-05-20T15:45:19.436Z,23.40
2019-05-20T15:55:25.058Z,23.20
2019-05-20T16:05:30.696Z,22.80
2019-05-20T16:15:36.276Z,23.20
2019-05-20T16:25:41.879Z,23.80
2019-05-20T16:35:47.394Z,23.50
2019-05-20T16:45:53.089Z,23.50
2019-05-20T16:55:58.796Z,23.40
2019-05-20T17:06:04.448Z,23.20
2019-05-20T17:16:10.161Z,22.80
2019-05-20T17:26:15.761Z,22.50
2019-05-20T17:36:21.319Z,22.20
2019-05-20T17:46:27.027Z,21.90
2019-05-20T18:16:43.037Z,20.40
2019-05-20T18:36:54.940Z,19.20
2019-05-20T18:47:00.955Z,18.80
2019-05-20T18:57:08.319Z,18.50
2019-05-20T19:07:14.194Z,18.30
2019-05-20T19:17:20.191Z,18.20
2019-05-20T19:27:26.185Z,17.80
2019-05-20T19:37:32.075Z,17.70
2019-05-20T19:47:37.875Z,17.50
2019-05-20T19:57:43.511Z,17.40
2019-05-20T20:07:49.183Z,17.20
2019-05-20T20:17:54.816Z,17.10
2019-05-20T20:28:00.468Z,16.70
2019-05-20T20:38:05.981Z,16.60
2019-05-20T20:48:11.476Z,16.40
2019-05-20T20:58:17.009Z,16.30
2019-05-20T21:08:22.595Z,16.10
2019-05-20T21:18:28.089Z,15.90
2019-05-20T21:28:33.600Z,15.60
2019-05-20T21:38:39.084Z,15.50
2019-05-20T21:48:44.634Z,15.30
2019-05-20T21:58:50.212Z,15.30
2019-05-20T22:08:56.250Z,15.20
2019-05-20T22:59:29.073Z,14.60
2019-05-20T23:09:35.250Z,14.50
2019-05-20T23:19:41.874Z,14.50
2019-05-20T23:29:48.016Z,14.30
2019-05-20T23:39:53.953Z,14.40
2019-05-20T23:50:00.153Z,14.20
